Terminal Aerodrome Forecast
Issued by NWS

Home | Current Version | Previous Version | Text Only | Print | Product List | Glossary On
Versions: 1 2 3 4 5 6 7 8 9 10 11 12 13 14 15 16 17 18 19 20
000
FTUS43 KICT 151738
TAFHUT
TAF
KHUT 151738Z 1518/1618 16013KT P6SM SCT020 OVC028
     FM152100 16013KT P6SM BKN035
     FM160200 13010KT P6SM OVC025=

USA.gov is the U.S. government's official web portal to all federal, state and local government web resources and services.